Time;durP1;ratioP1;P1;durP2;ratioP2;P2;SDS_P1;SDS_P2;PMS_P1;PMS_P2;Temp;Humidity;BMP_temperature;BMP_pressure;BME280_temperature;BME280_humidity;BME280_pressure;Samples;Min_cycle;Max_cycle;Signal;HPM_P1;HPM_P2
2022/05/20 00:01:50;;;;;;;32.90;20.40;;;;;;;13.43;96.04;102101.28;5072080;28;20037;-68
2022/05/20 00:04:16;;;;;;;28.10;19.08;;;;;;;13.40;95.90;102101.66;5071829;28;20040;-68
2022/05/20 00:06:41;;;;;;;28.58;18.55;;;;;;;13.37;96.09;102092.16;5071975;28;20025;-68
2022/05/20 00:09:06;;;;;;;26.30;17.55;;;;;;;13.33;96.09;102094.34;5071799;28;20531;-68
2022/05/20 00:11:32;;;;;;;32.08;19.95;;;;;;;13.33;95.80;102102.38;5057792;28;20063;-68
2022/05/20 00:13:58;;;;;;;31.60;19.42;;;;;;;13.28;95.83;102094.09;5052519;28;20479;-68
2022/05/20 00:16:24;;;;;;;27.77;19.08;;;;;;;13.28;96.00;102098.59;5052654;28;20021;-68
2022/05/20 00:18:49;;;;;;;26.65;18.10;;;;;;;13.28;96.23;102101.28;5052712;28;20108;-68
2022/05/20 00:21:15;;;;;;;28.08;19.95;;;;;;;13.26;96.23;102100.63;5034493;28;20087;-68
2022/05/20 00:23:40;;;;;;;27.92;18.55;;;;;;;13.25;96.30;102098.94;5052535;28;20039;-68
2022/05/20 00:26:06;;;;;;;28.45;19.55;;;;;;;13.23;96.33;102095.59;5052291;28;20476;-68
2022/05/20 00:28:31;;;;;;;29.65;19.08;;;;;;;13.23;96.71;102095.59;5052202;28;20028;-68
2022/05/20 00:31:01;;;;;;;29.38;21.77;;;;;;;13.21;96.87;102101.16;5052066;28;20037;-68
2022/05/20 00:33:27;;;;;;;29.90;19.50;;;;;;;13.17;96.81;102105.22;5052233;28;20028;-68
2022/05/20 00:35:54;;;;;;;28.88;19.65;;;;;;;13.15;96.85;102094.69;5051931;28;20029;-68
2022/05/20 00:38:20;;;;;;;26.67;17.33;;;;;;;13.14;96.38;102094.88;5052124;28;20029;-69
2022/05/20 00:40:48;;;;;;;30.65;21.05;;;;;;;13.07;96.29;102092.09;5052331;28;20078;-68
2022/05/20 00:43:35;;;;;;;30.35;18.58;;;;;;;12.98;96.15;102089.69;5052285;28;20070;-68
2022/05/20 00:46:13;;;;;;;25.13;16.40;;;;;;;12.90;95.49;102096.75;5050886;28;20155;-68
2022/05/20 00:48:39;;;;;;;25.42;16.17;;;;;;;12.78;95.58;102089.34;5033960;28;20032;-68
2022/05/20 00:51:17;;;;;;;27.50;16.35;;;;;;;12.76;96.66;102100.25;5051833;28;20043;-68
2022/05/20 00:54:20;;;;;;;28.65;19.48;;;;;;;12.75;96.51;102097.75;5052000;28;20024;-68
2022/05/20 00:57:18;;;;;;;32.05;18.83;;;;;;;12.71;96.52;102090.06;5051881;28;20094;-68
2022/05/20 00:59:57;;;;;;;25.90;17.33;;;;;;;12.64;95.95;102090.97;4964769;28;20616;-68
2022/05/20 01:02:25;;;;;;;24.23;15.98;;;;;;;12.60;96.13;102089.66;5051956;28;20017;-68
2022/05/20 01:04:56;;;;;;;25.55;16.92;;;;;;;12.51;96.46;102083.53;5051934;28;20052;-68
2022/05/20 01:07:22;;;;;;;36.33;19.10;;;;;;;12.53;96.70;102089.56;5051617;28;20025;-68
2022/05/20 01:09:48;;;;;;;30.23;18.52;;;;;;;12.50;97.70;102081.88;5051610;28;20025;-68
2022/05/20 01:12:13;;;;;;;28.33;18.35;;;;;;;12.54;97.61;102087.72;5051278;28;20095;-68
2022/05/20 01:14:39;;;;;;;37.38;20.20;;;;;;;12.50;97.53;102089.91;5051264;28;20032;-68
2022/05/20 01:17:07;;;;;;;29.88;17.42;;;;;;;12.43;97.70;102080.94;5051472;28;20437;-68
2022/05/20 01:19:46;;;;;;;30.63;17.33;;;;;;;12.42;97.96;102089.97;5051702;28;20111;-68
2022/05/20 01:22:23;;;;;;;30.27;18.98;;;;;;;12.39;97.46;102093.00;5051517;28;20036;-68
2022/05/20 01:24:49;;;;;;;28.20;18.42;;;;;;;12.37;97.24;102087.00;5051375;28;20055;-68
2022/05/20 01:27:14;;;;;;;34.88;19.45;;;;;;;12.33;97.72;102085.69;5051336;28;20472;-68
2022/05/20 01:29:40;;;;;;;38.33;17.38;;;;;;;12.32;98.01;102092.88;5051080;28;20025;-68
2022/05/20 01:32:06;;;;;;;36.72;18.35;;;;;;;12.27;98.22;102092.59;5051241;28;20526;-68
2022/05/20 01:34:31;;;;;;;36.45;18.58;;;;;;;12.25;98.46;102092.75;5061355;28;20028;-68
2022/05/20 01:36:57;;;;;;;34.83;19.08;;;;;;;12.20;98.55;102091.63;5070125;28;20028;-68
2022/05/20 01:39:22;;;;;;;29.30;15.95;;;;;;;12.09;98.52;102078.66;5070193;28;20044;-68
2022/05/20 01:42:09;;;;;;;31.83;18.05;;;;;;;12.15;98.93;102086.78;5070140;28;20020;-68
2022/05/20 01:44:40;;;;;;;35.80;18.00;;;;;;;12.11;99.03;102076.66;5070085;28;20040;-68
2022/05/20 01:47:24;;;;;;;26.77;17.13;;;;;;;12.11;99.03;102074.78;5069477;28;20045;-68
2022/05/20 01:50:09;;;;;;;25.33;16.25;;;;;;;12.12;99.02;102075.63;5052045;28;20079;-68
2022/05/20 01:53:03;;;;;;;29.77;16.58;;;;;;;12.11;99.12;102073.97;5069741;28;20043;-68
2022/05/20 01:55:41;;;;;;;34.22;16.17;;;;;;;12.06;98.99;102063.78;5050285;28;20056;-68
2022/05/20 01:58:18;;;;;;;35.40;19.25;;;;;;;12.03;98.96;102064.16;5050487;28;20100;-68
2022/05/20 02:00:47;;;;;;;39.28;17.48;;;;;;;11.99;98.86;102060.16;5050670;28;20128;-68
2022/05/20 02:03:21;;;;;;;30.02;16.98;;;;;;;11.94;99.57;102055.31;5050494;28;20100;-68
2022/05/20 02:05:57;;;;;;;31.50;16.60;;;;;;;11.93;99.50;102053.66;5050499;28;20052;-68
2022/05/20 02:08:31;;;;;;;28.30;17.60;;;;;;;11.95;99.81;102059.69;5050506;28;20103;-68
2022/05/20 02:11:13;;;;;;;27.05;16.42;;;;;;;11.99;100.00;102066.31;5050510;28;20494;-68
2022/05/20 02:13:43;;;;;;;33.28;18.23;;;;;;;12.00;99.71;102061.84;5050496;28;20032;-68
2022/05/20 02:16:14;;;;;;;32.35;16.90;;;;;;;11.98;99.94;102055.81;5049897;28;20040;-68
2022/05/20 02:18:49;;;;;;;25.02;15.55;;;;;;;11.96;99.92;102058.66;5050401;28;20029;-68
2022/05/20 02:21:18;;;;;;;32.17;17.77;;;;;;;11.91;99.97;102042.31;5050271;28;20028;-68
2022/05/20 02:23:48;;;;;;;30.30;17.15;;;;;;;11.92;100.00;102053.84;5032617;28;20116;-68
2022/05/20 02:26:17;;;;;;;36.63;17.33;;;;;;;11.90;100.00;102059.38;5050107;28;20064;-68
2022/05/20 02:28:48;;;;;;;44.47;18.13;;;;;;;11.88;100.00;102047.19;5050240;28;20057;-68
2022/05/20 02:31:18;;;;;;;29.52;16.45;;;;;;;11.92;100.00;102052.03;5050070;28;20029;-68
2022/05/20 02:33:44;;;;;;;31.42;17.45;;;;;;;11.93;100.00;102042.97;5050095;28;20025;-68
2022/05/20 02:36:34;;;;;;;24.63;15.43;;;;;;;11.92;100.00;102046.66;5032035;28;20059;-68
2022/05/20 02:39:03;;;;;;;33.40;16.88;;;;;;;11.89;99.96;102046.16;5050092;28;20033;-68
2022/05/20 02:41:28;;;;;;;33.88;15.93;;;;;;;11.83;99.85;102037.00;5049971;28;20060;-68
2022/05/20 02:43:54;;;;;;;36.53;19.40;;;;;;;11.85;100.00;102040.31;5049986;28;20448;-68
2022/05/20 02:46:19;;;;;;;43.15;19.48;;;;;;;11.80;100.00;102045.38;5049535;28;20056;-68
2022/05/20 02:48:44;;;;;;;34.70;19.23;;;;;;;11.78;100.00;102044.69;5031868;28;20043;-68
2022/05/20 02:51:11;;;;;;;40.13;19.20;;;;;;;11.76;100.00;102046.72;5049807;28;20035;-68
2022/05/20 02:53:36;;;;;;;28.58;16.63;;;;;;;11.73;100.00;102044.38;5049826;28;20021;-68
2022/05/20 02:56:03;;;;;;;32.38;18.33;;;;;;;11.70;100.00;102047.41;5049638;28;20083;-69
2022/05/20 03:04:09;;;;;;;28.38;17.52;;;;;;;11.76;100.00;102055.59;5049853;28;20060;-68
2022/05/20 03:06:36;;;;;;;36.67;19.67;;;;;;;11.77;100.00;102059.09;5048932;28;20648;-68
2022/05/20 03:09:02;;;;;;;33.55;16.80;;;;;;;11.75;100.00;102045.88;5048502;28;20044;-68
2022/05/20 03:11:28;;;;;;;37.40;20.30;;;;;;;11.73;100.00;102034.53;5049583;28;20048;-68
2022/05/20 03:13:53;;;;;;;29.27;18.90;;;;;;;11.72;100.00;102038.22;5049519;28;20491;-68
2022/05/20 03:16:18;;;;;;;33.10;16.65;;;;;;;11.70;100.00;102040.22;5049465;28;20091;-68
2022/05/20 03:18:44;;;;;;;31.73;17.95;;;;;;;11.68;100.00;102042.22;5049221;28;20068;-68
2022/05/20 03:21:09;;;;;;;32.83;18.60;;;;;;;11.65;100.00;102045.25;5049271;28;20056;-68
2022/05/20 03:23:34;;;;;;;28.98;18.00;;;;;;;11.61;100.00;102035.94;5068588;28;20036;-68
2022/05/20 03:26:05;;;;;;;33.63;17.85;;;;;;;11.55;100.00;102023.25;5068684;28;20059;-68
2022/05/20 03:28:31;;;;;;;36.80;20.80;;;;;;;11.61;100.00;102034.09;5068613;28;20024;-68
2022/05/20 03:31:03;;;;;;;38.58;19.55;;;;;;;11.60;100.00;102029.75;5068597;28;20891;-68
2022/05/20 03:33:29;;;;;;;44.50;19.67;;;;;;;11.62;100.00;102032.25;5068424;28;20451;-68
2022/05/20 03:35:54;;;;;;;28.77;18.63;;;;;;;11.59;100.00;102021.91;5068475;28;20060;-68
2022/05/20 03:38:20;;;;;;;35.75;18.67;;;;;;;11.54;100.00;102024.28;5068527;28;20056;-68
2022/05/20 03:40:45;;;;;;;36.15;19.27;;;;;;;11.54;100.00;102037.63;5068246;28;20043;-68
2022/05/20 03:43:11;;;;;;;33.83;17.88;;;;;;;11.48;100.00;102033.81;5068253;28;20028;-68
2022/05/20 03:45:39;;;;;;;29.52;16.60;;;;;;;11.46;100.00;102035.00;5068104;28;20110;-68
2022/05/20 03:48:05;;;;;;;30.60;18.08;;;;;;;11.48;100.00;102033.81;5068152;28;20048;-68
2022/05/20 03:50:31;;;;;;;29.13;17.40;;;;;;;11.47;100.00;102040.16;5068323;28;20395;-68
2022/05/20 03:52:56;;;;;;;31.42;17.35;;;;;;;11.48;100.00;102038.34;5068258;28;20032;-68
2022/05/20 03:55:23;;;;;;;33.55;17.67;;;;;;;11.43;100.00;102033.50;5068281;28;20082;-68
2022/05/20 03:57:49;;;;;;;33.67;19.02;;;;;;;11.43;100.00;102038.03;5050536;28;20035;-68
2022/05/20 04:00:15;;;;;;;26.40;17.02;;;;;;;11.40;100.00;102034.69;5068237;28;20036;-68
2022/05/20 04:02:40;;;;;;;34.53;16.85;;;;;;;11.38;100.00;102028.69;5068332;28;20039;-68
2022/05/20 04:05:06;;;;;;;26.80;15.32;;;;;;;11.38;100.00;102035.88;5067905;28;20390;-68
2022/05/20 04:07:32;;;;;;;27.35;16.85;;;;;;;11.32;100.00;102028.56;5067968;28;20451;-68
2022/05/20 04:09:58;;;;;;;27.35;16.67;;;;;;;11.23;100.00;102016.22;5068249;28;20025;-68
2022/05/20 04:12:31;;;;;;;31.90;16.90;;;;;;;11.19;100.00;102013.06;5068027;28;20468;-68
2022/05/20 04:14:57;;;;;;;36.33;17.80;;;;;;;11.20;100.00;102017.41;5068047;28;20090;-68
2022/05/20 04:17:23;;;;;;;25.38;16.55;;;;;;;11.21;100.00;102008.38;5068125;28;20456;-68
2022/05/20 04:19:48;;;;;;;25.02;16.20;;;;;;;11.22;100.00;102003.88;5067717;28;20036;-68
2022/05/20 04:22:18;;;;;;;31.50;19.15;;;;;;;11.23;100.00;101998.34;5069973;28;20525;-68
2022/05/20 04:24:44;;;;;;;29.38;16.88;;;;;;;11.19;100.00;101997.88;5071654;28;20094;-68
2022/05/20 04:27:09;;;;;;;23.73;16.67;;;;;;;11.25;100.00;101998.19;5071504;28;20484;-68
2022/05/20 04:29:35;;;;;;;25.73;18.10;;;;;;;11.30;100.00;101996.66;5071665;28;20395;-68
2022/05/20 04:32:01;;;;;;;26.05;16.30;;;;;;;11.36;100.00;101993.28;5071349;28;20033;-68
2022/05/20 04:34:26;;;;;;;26.58;16.85;;;;;;;11.41;100.00;101990.09;5071812;28;20054;-68
2022/05/20 04:36:52;;;;;;;27.15;17.45;;;;;;;11.47;100.00;101989.41;5071384;28;20032;-68
2022/05/20 04:39:19;;;;;;;27.23;17.08;;;;;;;11.53;100.00;101995.91;5071347;28;20058;-68
2022/05/20 04:47:21;;;;;;;26.40;17.83;;;;;;;11.71;100.00;102001.81;5071164;28;20099;-68
2022/05/20 04:49:47;;;;;;;26.80;17.63;;;;;;;11.78;100.00;101997.41;5071308;28;20028;-68
2022/05/20 04:52:12;;;;;;;27.42;17.70;;;;;;;11.81;100.00;101997.06;5071168;28;20369;-68
2022/05/20 04:54:49;;;;;;;27.52;18.88;;;;;;;11.87;100.00;101997.38;5071029;28;20030;-68
2022/05/20 04:57:36;;;;;;;26.50;17.23;;;;;;;11.93;100.00;101997.53;5071100;28;20033;-68
2022/05/20 05:00:20;;;;;;;28.77;19.08;;;;;;;11.96;100.00;102002.50;5071041;28;20027;-68
2022/05/20 05:02:45;;;;;;;26.77;16.30;;;;;;;12.07;100.00;102014.63;5070913;28;20101;-68
2022/05/20 05:05:14;;;;;;;25.88;18.65;;;;;;;12.13;100.00;102016.63;5070817;28;20033;-68
2022/05/20 05:07:42;;;;;;;29.83;20.67;;;;;;;12.21;100.00;102021.09;5070678;28;20509;-68
2022/05/20 05:10:09;;;;;;;28.45;19.67;;;;;;;12.25;100.00;102022.38;5070740;28;20059;-68
2022/05/20 05:12:35;;;;;;;28.42;20.00;;;;;;;12.39;100.00;102034.13;5070666;28;20036;-68
2022/05/20 05:15:00;;;;;;;30.05;19.88;;;;;;;12.47;100.00;102032.25;5071059;28;20059;-68
2022/05/20 05:20:17;;;;;;;29.88;19.92;;;;;;;12.74;100.00;102023.81;5054551;28;20044;-68
2022/05/20 05:22:42;;;;;;;29.58;20.45;;;;;;;12.86;100.00;102025.88;5054031;28;20106;-68
2022/05/20 05:25:10;;;;;;;29.85;22.45;;;;;;;13.02;100.00;102030.22;5070239;28;20455;-68
2022/05/20 05:27:35;;;;;;;30.63;21.73;;;;;;;13.15;100.00;102021.50;5067067;28;20037;-68
2022/05/20 05:30:01;;;;;;;32.00;21.45;;;;;;;13.21;100.00;102010.06;5033160;28;20127;-68
2022/05/20 05:32:26;;;;;;;31.27;22.38;;;;;;;13.25;100.00;102010.53;5050724;28;20056;-68
2022/05/20 05:34:52;;;;;;;30.60;23.17;;;;;;;13.25;100.00;102008.66;5051049;28;20072;-69
2022/05/20 05:37:17;;;;;;;35.63;25.23;;;;;;;13.25;100.00;102010.53;5050960;28;20421;-68
2022/05/20 05:39:43;;;;;;;35.35;25.05;;;;;;;13.35;100.00;102014.63;5050976;28;20033;-68
2022/05/20 05:42:08;;;;;;;36.45;27.73;;;;;;;13.50;100.00;102005.75;5050955;28;20031;-68
2022/05/20 05:44:33;;;;;;;33.00;25.67;;;;;;;13.58;100.00;102009.13;5051209;28;20392;-68
2022/05/20 05:46:59;;;;;;;35.33;24.98;;;;;;;13.67;100.00;102004.47;5050632;28;20140;-68
2022/05/20 05:49:24;;;;;;;37.20;25.77;;;;;;;13.74;100.00;101999.22;5050740;28;20036;-68
2022/05/20 05:51:50;;;;;;;35.15;26.80;;;;;;;13.79;100.00;101997.63;5050684;28;20047;-68
2022/05/20 05:54:17;;;;;;;40.13;27.67;;;;;;;13.84;100.00;101990.88;5050648;28;20037;-68
2022/05/20 05:56:42;;;;;;;38.42;26.80;;;;;;;13.99;100.00;101997.84;5050756;28;20449;-69
2022/05/20 05:59:08;;;;;;;37.45;25.45;;;;;;;14.13;99.91;101990.75;5050668;28;20025;-68
2022/05/20 06:01:34;;;;;;;35.17;23.05;;;;;;;14.19;99.14;101981.09;5032755;28;20041;-68
2022/05/20 06:03:59;;;;;;;31.75;20.02;;;;;;;14.22;97.46;101983.38;5050514;28;20658;-68
2022/05/20 06:06:25;;;;;;;30.95;21.20;;;;;;;14.19;97.29;101973.84;5050478;28;20519;-68
2022/05/20 06:08:50;;;;;;;29.30;21.10;;;;;;;14.18;96.97;101977.56;5050436;28;20561;-68
2022/05/20 06:11:16;;;;;;;27.45;19.33;;;;;;;14.25;97.04;101975.78;5069337;28;20024;-68
2022/05/20 06:13:41;;;;;;;28.65;20.02;;;;;;;14.31;97.36;101955.41;5069209;28;20032;-68
2022/05/20 06:16:07;;;;;;;27.40;19.73;;;;;;;14.37;97.31;101973.41;5068591;28;20063;-68
2022/05/20 06:18:32;;;;;;;31.75;21.75;;;;;;;14.45;97.47;101978.63;5059373;28;20029;-68
2022/05/20 06:20:58;;;;;;;29.60;20.90;;;;;;;14.53;96.35;101971.47;5049680;28;20083;-68
2022/05/20 06:23:25;;;;;;;32.85;21.75;;;;;;;14.57;95.52;101959.34;5049596;28;20029;-69
2022/05/20 06:25:51;;;;;;;28.05;20.17;;;;;;;14.58;94.79;101961.00;5049889;28;20025;-69
2022/05/20 06:28:18;;;;;;;31.23;21.05;;;;;;;14.64;95.02;101969.06;5049879;28;20099;-69
2022/05/20 06:30:44;;;;;;;27.67;18.60;;;;;;;14.74;93.72;101976.78;5049882;28;20033;-69
2022/05/20 06:33:10;;;;;;;30.58;18.80;;;;;;;14.85;92.32;101970.88;5049633;28;20028;-70
2022/05/20 06:41:06;;;;;;;23.92;14.60;;;;;;;14.98;87.72;101969.28;5049804;28;20159;-69
2022/05/20 06:43:32;;;;;;;23.83;16.10;;;;;;;15.02;86.72;101968.69;5048956;28;20029;-69
2022/05/20 06:46:00;;;;;;;23.38;16.02;;;;;;;15.08;86.35;101967.06;5049137;28;20376;-69
2022/05/20 06:48:37;;;;;;;24.00;15.60;;;;;;;15.15;86.12;101956.38;5049493;28;20086;-69
2022/05/20 06:51:04;;;;;;;24.52;14.70;;;;;;;15.26;85.18;101948.56;5049644;28;20025;-69
2022/05/20 06:53:29;;;;;;;20.90;15.05;;;;;;;15.39;85.53;101941.56;5049811;28;20044;-69
2022/05/20 06:55:55;;;;;;;19.52;12.90;;;;;;;15.51;82.23;101937.25;5049556;28;20027;-69
2022/05/20 06:58:20;;;;;;;20.92;12.70;;;;;;;15.61;80.95;101936.88;5049388;28;20114;-69
2022/05/20 07:00:45;;;;;;;20.23;12.02;;;;;;;15.62;80.26;101946.63;5049709;28;20114;-69
2022/05/20 07:03:11;;;;;;;19.98;12.38;;;;;;;15.65;81.16;101951.59;5049212;28;20063;-69
2022/05/20 07:05:36;;;;;;;17.58;10.05;;;;;;;15.77;78.21;101945.44;5049938;28;20064;-72
2022/05/20 07:08:02;;;;;;;17.85;10.57;;;;;;;15.93;76.92;101933.44;5061000;28;20059;-72
2022/05/20 07:10:27;;;;;;;18.77;10.55;;;;;;;16.14;76.04;101934.28;5059231;28;20036;-71
2022/05/20 07:12:52;;;;;;;19.92;11.07;;;;;;;16.28;74.20;101937.81;5060080;28;20041;-72
2022/05/20 07:15:18;;;;;;;18.92;10.93;;;;;;;16.40;74.30;101925.34;5060417;28;20033;-72
2022/05/20 07:17:46;;;;;;;19.92;10.15;;;;;;;16.45;74.09;101920.16;5045287;28;20017;-71
2022/05/20 07:20:12;;;;;;;19.30;11.00;;;;;;;16.47;74.71;101922.66;5058851;28;20082;-71
2022/05/20 07:22:37;;;;;;;17.90;10.88;;;;;;;16.40;74.00;101911.88;5058969;28;20029;-71
2022/05/20 07:25:03;;;;;;;20.17;11.55;;;;;;;16.42;74.41;101910.63;5059208;28;20036;-71
2022/05/20 07:27:30;;;;;;;18.67;10.93;;;;;;;16.43;73.64;101906.94;5059588;28;20383;-71
2022/05/20 07:29:55;;;;;;;18.55;11.85;;;;;;;16.54;75.26;101896.56;5056974;28;20115;-72
2022/05/20 07:32:21;;;;;;;18.55;11.63;;;;;;;16.59;75.25;101894.88;5059550;28;20463;-71
2022/05/20 07:34:46;;;;;;;21.30;12.35;;;;;;;16.64;76.04;101897.78;5058522;28;20057;-72
2022/05/20 07:37:12;;;;;;;22.27;12.50;;;;;;;16.70;74.56;101890.72;5061045;28;20029;-71
2022/05/20 07:39:37;;;;;;;21.95;12.52;;;;;;;16.75;74.48;101882.81;5059399;28;20492;-71
2022/05/20 07:42:03;;;;;;;21.52;13.52;;;;;;;16.85;74.49;101882.41;5041092;28;20483;-71
2022/05/20 07:44:28;;;;;;;18.48;12.18;;;;;;;17.03;73.47;101893.31;5055006;28;20116;-73
2022/05/20 07:46:53;;;;;;;19.17;11.88;;;;;;;17.22;71.42;101885.34;5059605;28;20127;-72
2022/05/20 07:49:19;;;;;;;18.77;12.43;;;;;;;17.36;72.32;101886.91;5056914;28;20508;-73
2022/05/20 07:51:48;;;;;;;18.73;11.98;;;;;;;17.47;72.94;101885.41;5055933;28;20070;-73
2022/05/20 07:54:23;;;;;;;17.50;10.52;;;;;;;17.61;72.79;101886.16;5057496;28;20036;-73
2022/05/20 07:56:57;;;;;;;19.13;10.73;;;;;;;17.74;72.02;101872.56;5065183;28;20021;-70
2022/05/20 07:59:30;;;;;;;20.05;11.35;;;;;;;17.88;70.64;101871.44;5072092;28;20103;-70
2022/05/20 08:01:57;;;;;;;21.65;11.15;;;;;;;18.02;68.98;101866.75;5071938;28;20032;-70
2022/05/20 08:07:18;;;;;;;18.92;10.43;;;;;;;18.72;68.07;101865.63;5071975;28;20534;-70
2022/05/20 08:09:44;;;;;;;15.88;9.43;;;;;;;19.18;66.46;101862.38;5071879;28;20434;-70
2022/05/20 08:12:09;;;;;;;19.60;10.48;;;;;;;19.32;66.97;101856.75;5071854;28;20028;-70
2022/05/20 08:14:35;;;;;;;20.98;10.85;;;;;;;19.94;63.99;101854.56;5071970;28;20551;-69
2022/05/20 08:17:01;;;;;;;14.43;9.02;;;;;;;20.78;60.92;101852.38;5071696;28;20025;-70
2022/05/20 08:19:27;;;;;;;15.32;8.95;;;;;;;21.77;56.82;101844.94;5071700;28;20028;-70
2022/05/20 08:21:53;;;;;;;12.15;7.63;;;;;;;22.76;54.62;101834.09;5071656;28;20372;-70
2022/05/20 08:24:19;;;;;;;12.98;7.57;;;;;;;23.62;50.71;101846.94;5071662;28;20048;-69
2022/05/20 08:26:44;;;;;;;18.38;8.00;;;;;;;24.27;48.89;101841.44;5063048;28;20114;-70
2022/05/20 08:29:13;;;;;;;12.90;7.28;;;;;;;24.74;48.28;101828.84;5034369;28;20484;-70
2022/05/20 08:31:40;;;;;;;14.23;8.32;;;;;;;25.13;47.49;101826.47;5052055;28;20059;-70
2022/05/20 08:34:06;;;;;;;14.55;8.43;;;;;;;25.23;47.70;101831.13;5052036;28;20028;-70
2022/05/20 08:36:32;;;;;;;16.67;8.77;;;;;;;24.80;46.69;101828.56;5051893;28;20029;-70
2022/05/20 08:38:57;;;;;;;12.68;6.85;;;;;;;24.38;47.67;101828.66;5052187;28;20367;-70
2022/05/20 08:41:47;;;;;;;9.93;6.38;;;;;;;24.11;52.22;101820.63;5033955;28;20036;-70
2022/05/20 08:44:17;;;;;;;13.00;6.45;;;;;;;23.68;46.95;101826.00;5042121;28;20072;-69
2022/05/20 08:46:42;;;;;;;12.00;7.13;;;;;;;23.38;49.91;101819.25;5051824;28;20059;-70
2022/05/20 08:49:11;;;;;;;11.80;7.22;;;;;;;23.08;49.85;101798.03;5052067;28;20025;-70
2022/05/20 08:51:39;;;;;;;14.30;8.75;;;;;;;22.48;49.85;101799.78;5051901;28;20021;-70
2022/05/20 08:54:05;;;;;;;13.40;7.45;;;;;;;21.83;52.55;101786.94;5051883;28;20051;-70
2022/05/20 08:56:30;;;;;;;13.80;7.35;;;;;;;21.35;52.73;101772.00;5051782;28;20025;-70
2022/05/20 08:59:02;;;;;;;13.13;7.47;;;;;;;21.02;55.10;101774.44;5051733;28;20036;-69
2022/05/20 09:01:39;;;;;;;13.23;6.43;;;;;;;20.84;55.53;101771.13;5071122;28;20119;-70
2022/05/20 09:04:07;;;;;;;13.65;6.22;;;;;;;20.56;55.48;101751.88;5070833;28;20032;-70
2022/05/20 09:06:39;;;;;;;11.75;6.80;;;;;;;20.46;56.62;101751.69;5070482;28;20032;-70
2022/05/20 09:09:12;;;;;;;9.57;5.80;;;;;;;20.45;57.46;101750.03;5070169;28;20025;-70
2022/05/20 09:11:41;;;;;;;12.18;7.13;;;;;;;20.54;56.73;101751.34;5070652;28;20903;-70
2022/05/20 09:17:02;;;;;;;12.75;6.68;;;;;;;20.37;58.33;101753.13;5070976;28;20101;-70
2022/05/20 09:19:28;;;;;;;9.27;5.80;;;;;;;20.31;57.83;101748.66;5070584;28;20158;-70
2022/05/20 09:22:05;;;;;;;10.95;6.15;;;;;;;20.16;57.02;101751.03;5070510;28;20033;-70
2022/05/20 09:24:40;;;;;;;9.90;5.82;;;;;;;19.99;58.31;101745.53;5070389;28;20031;-70
2022/05/20 09:27:13;;;;;;;10.93;6.10;;;;;;;19.82;58.76;101748.16;5070267;28;20032;-70
2022/05/20 09:29:46;;;;;;;11.20;6.15;;;;;;;19.71;60.46;101736.25;5069918;28;20505;-70
2022/05/20 09:32:29;;;;;;;9.00;5.53;;;;;;;19.89;58.45;101725.31;5050822;28;20436;-70
2022/05/20 09:35:01;;;;;;;10.88;5.63;;;;;;;20.15;58.17;101715.03;5050781;28;20029;-70
2022/05/20 09:37:29;;;;;;;9.52;5.90;;;;;;;20.23;58.39;101706.50;5050961;28;20017;-70
2022/05/20 09:39:55;;;;;;;8.65;5.78;;;;;;;20.30;58.82;101703.66;5051058;28;20530;-70
2022/05/20 09:42:23;;;;;;;13.20;5.75;;;;;;;20.33;58.86;101700.44;5050871;28;20029;-71
2022/05/20 09:44:52;;;;;;;11.93;5.97;;;;;;;20.34;57.89;101694.81;5050446;28;20039;-70
2022/05/20 09:47:33;;;;;;;13.63;7.25;;;;;;;20.43;58.77;101689.81;5050529;28;20468;-71
2022/05/20 09:50:14;;;;;;;9.55;6.22;;;;;;;20.56;59.26;101683.31;5050978;28;20028;-71
2022/05/20 09:52:58;;;;;;;20.37;8.27;;;;;;;20.64;58.14;101677.50;5050772;28;20036;-70
2022/05/20 09:55:36;;;;;;;10.52;7.15;;;;;;;20.88;59.17;101671.94;5050659;28;20060;-70
2022/05/20 09:58:18;;;;;;;11.15;6.47;;;;;;;21.08;59.67;101666.03;5050588;28;20086;-70
2022/05/20 10:00:59;;;;;;;13.80;7.18;;;;;;;21.25;58.35;101664.16;5050626;28;20040;-70
2022/05/20 10:03:38;;;;;;;13.80;6.75;;;;;;;21.40;59.37;101645.38;5050606;28;20111;-70
2022/05/20 10:06:15;;;;;;;10.82;6.93;;;;;;;21.56;57.73;101640.16;5050536;28;20035;-70
2022/05/20 10:08:46;;;;;;;10.57;6.63;;;;;;;21.48;56.49;101627.84;5050490;28;20123;-70
2022/05/20 10:11:51;;;;;;;13.03;7.83;;;;;;;21.48;58.02;101619.72;5050418;28;20024;-70
2022/05/20 10:14:41;;;;;;;13.10;8.05;;;;;;;21.54;58.92;101612.47;5049091;28;20542;-70
2022/05/20 10:17:20;;;;;;;24.52;8.45;;;;;;;21.69;57.92;101596.34;5009164;28;20064;-70
2022/05/20 10:19:58;;;;;;;13.55;8.82;;;;;;;21.64;58.09;101589.00;5050279;28;20032;-70
2022/05/20 10:22:45;;;;;;;17.70;9.95;;;;;;;21.42;58.53;101582.72;5050285;28;20040;-70
2022/05/20 10:25:31;;;;;;;15.43;8.27;;;;;;;21.34;59.16;101566.84;5050137;28;20032;-70
2022/05/20 10:34:24;;;;;;;15.32;9.35;;;;;;;21.17;59.99;101535.16;5052580;28;20604;-70
2022/05/20 10:37:06;;;;;;;16.20;10.00;;;;;;;21.27;60.81;101534.47;5068955;28;20036;-70
2022/05/20 10:39:50;;;;;;;20.05;10.15;;;;;;;21.33;59.88;101538.91;5068775;28;20525;-69
2022/05/20 10:42:27;;;;;;;16.70;9.35;;;;;;;21.14;59.79;101529.41;5069039;28;20028;-70
2022/05/20 10:48:34;;;;;;;14.27;8.52;;;;;;;20.89;61.83;101516.31;5068478;28;20094;-70
2022/05/20 10:51:18;;;;;;;17.95;9.68;;;;;;;20.98;60.98;101501.25;5069086;28;20115;-70
2022/05/20 10:53:55;;;;;;;19.50;10.48;;;;;;;21.00;62.90;101482.84;5068918;28;20028;-71
2022/05/20 10:56:47;;;;;;;19.92;11.02;;;;;;;21.02;61.90;101467.97;5068944;28;20467;-70
2022/05/20 10:59:38;;;;;;;17.85;11.30;;;;;;;21.09;61.83;101459.66;5068899;28;20054;-70
2022/05/20 11:02:06;;;;;;;17.92;10.93;;;;;;;21.15;62.66;101449.69;5054546;28;20036;-70
2022/05/20 11:04:54;;;;;;;19.60;11.32;;;;;;;21.21;62.45;101427.75;5049724;28;20060;-70
2022/05/20 11:07:40;;;;;;;21.67;13.88;;;;;;;21.35;61.57;101411.09;5049523;28;20041;-70
2022/05/20 11:10:24;;;;;;;21.10;13.50;;;;;;;21.40;61.91;101397.59;5049699;28;20357;-70
2022/05/20 11:13:06;;;;;;;22.80;14.77;;;;;;;21.42;62.49;101381.91;5049582;28;20031;-70
2022/05/20 11:15:40;;;;;;;;;;;;;;;21.48;63.00;101383.56;5049678;28;20043;-70
2022/05/20 11:18:47;;;;;;;22.52;15.60;;;;;;;21.47;62.77;101375.72;5049561;28;19909;-70
2022/05/20 11:21:51;;;;;;;21.55;14.55;;;;;;;21.45;64.12;101365.91;5021150;28;20082;-70
2022/05/20 11:24:26;;;;;;;21.92;17.35;;;;;;;21.39;62.65;101342.53;5031358;28;20039;-70
2022/05/20 11:27:24;;;;;;;25.33;15.88;;;;;;;21.47;62.76;101349.38;5049397;28;20103;-70
2022/05/20 11:30:04;;;;;;;27.33;18.70;;;;;;;21.45;63.07;101341.47;5049381;28;20035;-70
2022/05/20 11:32:40;;;;;;;26.00;18.37;;;;;;;21.38;64.18;101340.91;5053166;28;20032;-70
2022/05/20 11:35:17;;;;;;;21.67;15.68;;;;;;;21.38;63.54;101332.75;5053029;28;20028;-70
2022/05/20 11:37:55;;;;;;;25.08;16.98;;;;;;;21.38;63.85;101335.47;5052693;28;20025;-70
2022/05/20 11:40:38;;;;;;;26.75;17.45;;;;;;;21.36;64.04;101326.72;5035318;28;20033;-70
2022/05/20 11:43:26;;;;;;;25.60;16.33;;;;;;;21.27;64.33;101319.28;5034880;28;20100;-70
2022/05/20 11:46:23;;;;;;;26.45;16.90;;;;;;;21.16;65.78;101310.25;5053127;28;20404;-70
2022/05/20 11:49:10;;;;;;;27.02;17.00;;;;;;;21.02;65.04;101317.97;5052652;28;20041;-70
2022/05/20 11:52:14;;;;;;;24.52;16.60;;;;;;;20.82;65.99;101323.16;5055572;28;20039;-70
2022/05/20 11:54:49;;;;;;;24.65;16.90;;;;;;;20.61;68.06;101319.41;5019327;28;20036;-70
2022/05/20 11:57:25;;;;;;;25.45;16.67;;;;;;;20.50;67.83;101313.00;5071040;28;20017;-70
2022/05/20 12:00:06;;;;;;;24.30;16.83;;;;;;;20.38;67.67;101307.69;5071942;28;20042;-70
2022/05/20 12:02:41;;;;;;;25.02;16.85;;;;;;;20.29;69.17;101282.94;5034912;28;20024;-70